createdAt,value
2023-04-22T00:01:35.935Z,13.30
2023-04-22T00:04:03.099Z,12.40
2023-04-22T00:06:31.452Z,13.00
2023-04-22T00:08:58.700Z,14.40
2023-04-22T00:11:25.773Z,12.00
2023-04-22T00:13:52.619Z,15.00
2023-04-22T00:16:19.739Z,15.70
2023-04-22T00:18:46.665Z,15.80
2023-04-22T00:21:13.347Z,15.20
2023-04-22T00:23:40.663Z,10.80
2023-04-22T00:26:07.371Z,13.70
2023-04-22T00:28:36.494Z,14.70
2023-04-22T00:31:04.174Z,12.60
2023-04-22T00:33:31.322Z,8.70
2023-04-22T00:35:58.055Z,11.80
2023-04-22T00:38:24.880Z,13.30
2023-04-22T00:40:52.932Z,14.80
2023-04-22T00:43:19.591Z,13.10
2023-04-22T00:45:46.854Z,11.00
2023-04-22T00:48:13.624Z,13.40
2023-04-22T00:50:40.517Z,16.30
2023-04-22T00:53:07.244Z,10.80
2023-04-22T00:55:34.340Z,12.30
2023-04-22T00:58:01.298Z,11.20
2023-04-22T01:00:28.224Z,13.70
2023-04-22T01:02:55.672Z,13.50
2023-04-22T01:05:25.841Z,12.70
2023-04-22T01:07:53.069Z,12.00
2023-04-22T01:10:20.342Z,9.30
2023-04-22T01:12:47.221Z,9.10
2023-04-22T01:15:13.973Z,10.20
2023-04-22T01:17:40.866Z,12.30
2023-04-22T01:20:09.896Z,11.80
2023-04-22T01:22:42.350Z,9.70
2023-04-22T01:25:09.583Z,12.60
2023-04-22T01:27:36.756Z,7.50
2023-04-22T01:30:04.729Z,8.60
2023-04-22T01:32:32.611Z,8.60
2023-04-22T01:34:59.349Z,9.40
2023-04-22T01:37:26.381Z,12.50
2023-04-22T01:39:53.109Z,7.30
2023-04-22T01:42:20.965Z,10.40
2023-04-22T01:44:48.744Z,10.40
2023-04-22T01:47:15.442Z,10.00
2023-04-22T01:49:42.507Z,10.00
2023-04-22T01:52:09.260Z,9.30
2023-04-22T01:54:36.456Z,6.50
2023-04-22T01:57:08.066Z,9.00
2023-04-22T01:59:34.864Z,8.00
2023-04-22T02:02:01.628Z,6.00
2023-04-22T02:04:28.654Z,8.30
2023-04-22T02:06:55.470Z,7.90
2023-04-22T02:09:22.205Z,6.70
2023-04-22T02:11:49.963Z,6.00
2023-04-22T02:14:16.957Z,7.00
2023-04-22T02:16:43.688Z,7.80
2023-04-22T02:19:10.769Z,6.70
2023-04-22T02:21:37.553Z,10.10
2023-04-22T02:24:04.584Z,6.50
2023-04-22T02:26:31.324Z,8.10
2023-04-22T02:28:58.152Z,7.40
2023-04-22T02:31:25.607Z,7.90
2023-04-22T02:33:53.196Z,8.20
2023-04-22T02:36:20.017Z,6.80
2023-04-22T02:38:48.515Z,9.00
2023-04-22T02:41:15.292Z,7.80
2023-04-22T02:43:45.472Z,6.60
2023-04-22T02:46:13.201Z,6.70
2023-04-22T02:48:40.413Z,6.30
2023-04-22T02:51:08.416Z,6.70
2023-04-22T02:53:35.679Z,7.50
2023-04-22T02:56:02.424Z,6.90
2023-04-22T02:58:29.762Z,7.50
2023-04-22T03:00:57.346Z,7.90
2023-04-22T03:03:24.237Z,9.00
2023-04-22T03:05:51.279Z,8.00
2023-04-22T03:08:19.757Z,9.40
2023-04-22T03:10:47.396Z,9.90
2023-04-22T03:13:14.390Z,13.20
2023-04-22T03:15:41.577Z,6.70
2023-04-22T03:18:10.537Z,8.20
2023-04-22T03:20:37.816Z,9.50
2023-04-22T03:23:09.009Z,10.20
2023-04-22T03:28:03.692Z,7.30
2023-04-22T03:30:30.713Z,7.50
2023-04-22T03:32:57.819Z,6.90
2023-04-22T03:35:35.413Z,7.20
2023-04-22T03:38:02.182Z,7.00
2023-04-22T03:40:32.255Z,6.70
2023-04-22T03:42:59.619Z,11.50
2023-04-22T03:45:26.694Z,8.50
2023-04-22T03:48:09.064Z,11.60
2023-04-22T03:50:39.376Z,8.00
2023-04-22T03:53:06.092Z,14.20
2023-04-22T03:55:33.386Z,11.20
2023-04-22T03:58:00.744Z,8.30
2023-04-22T04:00:27.642Z,7.70
2023-04-22T04:03:03.176Z,9.60
2023-04-22T04:05:31.220Z,7.60
2023-04-22T04:07:58.006Z,7.50
2023-04-22T04:10:26.411Z,9.10
2023-04-22T04:12:54.570Z,9.30
2023-04-22T04:15:21.601Z,6.80
2023-04-22T04:17:48.486Z,7.00
2023-04-22T04:20:15.952Z,6.20
2023-04-22T04:22:42.982Z,6.60
2023-04-22T04:25:10.002Z,7.90
2023-04-22T04:27:41.048Z,10.00
2023-04-22T04:30:09.242Z,7.70
2023-04-22T04:32:42.413Z,5.70
2023-04-22T04:35:13.539Z,7.20
2023-04-22T04:37:42.680Z,5.70
2023-04-22T04:40:11.652Z,5.30
2023-04-22T04:42:43.663Z,8.80
2023-04-22T04:45:17.039Z,6.90
2023-04-22T04:47:44.615Z,5.60
2023-04-22T04:50:19.617Z,8.70
2023-04-22T04:52:48.219Z,7.70
2023-04-22T04:55:16.976Z,10.90
2023-04-22T04:57:46.193Z,9.00
2023-04-22T05:00:15.812Z,8.50
2023-04-22T05:02:43.860Z,7.40
2023-04-22T05:05:11.624Z,7.40
2023-04-22T05:07:46.327Z,7.30
2023-04-22T05:10:15.621Z,6.80
2023-04-22T05:12:45.572Z,7.90
2023-04-22T05:15:16.523Z,5.80
2023-04-22T05:17:43.787Z,7.60
2023-04-22T05:20:11.604Z,6.50
2023-04-22T05:22:43.976Z,7.50
2023-04-22T05:25:11.246Z,7.10
2023-04-22T05:27:40.952Z,9.20
2023-04-22T05:30:08.589Z,7.40
2023-04-22T05:32:36.442Z,7.30
2023-04-22T05:35:05.406Z,8.40
2023-04-22T05:37:32.867Z,8.50
2023-04-22T05:40:00.376Z,9.40
2023-04-22T05:42:27.791Z,8.30
2023-04-22T05:44:56.005Z,6.00
2023-04-22T05:47:23.069Z,10.20
2023-04-22T05:49:50.304Z,11.20
2023-04-22T05:52:30.866Z,9.50
2023-04-22T05:55:20.453Z,7.20
2023-04-22T05:57:52.875Z,10.60
2023-04-22T06:03:22.711Z,10.10
2023-04-22T06:05:50.147Z,7.80
2023-04-22T06:08:18.996Z,8.10
2023-04-22T06:10:47.157Z,7.70
2023-04-22T06:13:13.932Z,7.60
2023-04-22T06:15:41.279Z,8.20
2023-04-22T06:18:08.115Z,7.60
2023-04-22T06:20:35.745Z,7.40
2023-04-22T06:23:04.758Z,8.70
2023-04-22T06:25:32.241Z,6.70
2023-04-22T06:27:59.275Z,10.20
2023-04-22T06:30:27.023Z,7.20
2023-04-22T06:32:55.602Z,7.50
2023-04-22T06:35:22.740Z,8.60
2023-04-22T06:37:49.722Z,9.50
2023-04-22T06:40:17.167Z,8.40
2023-04-22T06:42:53.678Z,7.30
2023-04-22T06:45:44.490Z,11.30
2023-04-22T06:48:31.591Z,9.40
2023-04-22T06:51:18.446Z,6.80
2023-04-22T06:53:45.906Z,8.00
2023-04-22T06:56:15.162Z,9.10
2023-04-22T06:58:42.040Z,6.80
2023-04-22T07:01:08.946Z,10.00
2023-04-22T07:03:36.573Z,9.20
2023-04-22T07:06:07.798Z,9.30
2023-04-22T07:08:34.889Z,11.20
2023-04-22T07:11:04.285Z,11.20
2023-04-22T07:13:36.565Z,7.90
2023-04-22T07:16:03.503Z,9.00
2023-04-22T07:18:30.730Z,7.60
2023-04-22T07:21:05.232Z,7.20
2023-04-22T07:23:32.794Z,7.10
2023-04-22T07:26:01.294Z,7.10
2023-04-22T07:28:28.379Z,7.60
2023-04-22T07:30:56.861Z,7.60
2023-04-22T07:33:24.425Z,7.80
2023-04-22T07:35:51.118Z,8.10
2023-04-22T07:38:17.805Z,8.30
2023-04-22T07:40:45.130Z,9.50
2023-04-22T07:43:13.738Z,9.50
2023-04-22T07:45:42.904Z,10.40
2023-04-22T07:48:11.224Z,12.60
2023-04-22T07:50:41.906Z,9.70
2023-04-22T07:53:10.384Z,8.90
2023-04-22T07:55:37.444Z,7.50
2023-04-22T07:58:05.905Z,9.20
2023-04-22T08:00:34.483Z,9.20
2023-04-22T08:03:02.412Z,7.10
2023-04-22T08:05:29.439Z,7.90
2023-04-22T08:07:56.316Z,10.20
2023-04-22T08:10:25.761Z,8.60
2023-04-22T08:12:53.169Z,6.30
2023-04-22T08:15:20.269Z,7.50
2023-04-22T08:17:50.308Z,6.70
2023-04-22T08:20:18.051Z,10.70
2023-04-22T08:22:45.098Z,7.10
2023-04-22T08:25:12.179Z,7.80
2023-04-22T08:27:39.289Z,9.20
2023-04-22T08:30:06.749Z,7.30
2023-04-22T08:32:33.851Z,6.60
2023-04-22T08:35:05.450Z,7.50
2023-04-22T08:37:34.659Z,5.40
2023-04-22T08:40:04.778Z,5.30
2023-04-22T08:42:32.650Z,7.70
2023-04-22T08:45:01.022Z,7.30
2023-04-22T08:47:27.994Z,6.50
2023-04-22T08:49:55.186Z,6.40
2023-04-22T08:52:22.338Z,6.10
2023-04-22T08:54:50.734Z,5.50
2023-04-22T08:57:18.029Z,4.90
2023-04-22T08:59:44.905Z,8.00
2023-04-22T09:02:15.180Z,6.00
2023-04-22T09:04:42.794Z,7.20
2023-04-22T09:07:10.430Z,6.80
2023-04-22T09:09:37.370Z,8.50
2023-04-22T09:12:07.174Z,6.00
2023-04-22T09:14:34.240Z,5.90
2023-04-22T09:17:02.540Z,8.60
2023-04-22T09:19:29.930Z,8.90
2023-04-22T09:21:59.885Z,7.10
2023-04-22T09:24:26.786Z,7.30
2023-04-22T09:26:55.027Z,5.70
2023-04-22T09:29:23.837Z,5.90
2023-04-22T09:31:51.499Z,7.30
2023-04-22T09:34:26.692Z,5.20
2023-04-22T09:36:54.997Z,10.20
2023-04-22T09:39:21.884Z,8.60
2023-04-22T09:41:48.590Z,6.20
2023-04-22T09:44:17.596Z,8.30
2023-04-22T09:46:47.218Z,11.50
2023-04-22T09:49:16.087Z,5.80
2023-04-22T09:51:49.895Z,5.30
2023-04-22T09:54:23.048Z,5.10
2023-04-22T09:56:54.623Z,8.20
2023-04-22T09:59:30.064Z,10.50
2023-04-22T10:02:03.998Z,5.40
2023-04-22T10:04:32.063Z,4.40
2023-04-22T10:07:02.098Z,6.40
2023-04-22T10:09:29.307Z,5.80
2023-04-22T10:11:58.542Z,4.70
2023-04-22T10:14:25.638Z,5.40
2023-04-22T10:16:56.196Z,8.10
2023-04-22T10:19:25.279Z,8.20
2023-04-22T10:21:54.277Z,4.40
2023-04-22T10:24:22.510Z,4.30
2023-04-22T10:26:57.069Z,4.70
2023-04-22T10:29:26.685Z,4.40
2023-04-22T10:32:23.619Z,4.60
2023-04-22T10:35:05.987Z,5.10
2023-04-22T10:37:33.718Z,5.80
2023-04-22T10:40:07.278Z,4.30
2023-04-22T10:42:36.625Z,4.00
2023-04-22T10:45:05.784Z,5.50
2023-04-22T10:47:34.920Z,4.80
2023-04-22T10:50:23.210Z,3.80
2023-04-22T10:52:55.772Z,4.20
2023-04-22T10:55:22.850Z,5.60
2023-04-22T10:57:50.448Z,4.70
2023-04-22T11:00:53.346Z,9.60
2023-04-22T11:03:28.859Z,4.50
2023-04-22T11:06:18.297Z,4.30
2023-04-22T11:08:49.464Z,4.00
2023-04-22T11:13:46.980Z,4.60
2023-04-22T11:16:14.721Z,6.80
2023-04-22T11:18:41.619Z,5.40
2023-04-22T11:21:09.078Z,10.10
2023-04-22T11:23:36.281Z,5.60
2023-04-22T11:26:05.973Z,4.20
2023-04-22T11:28:34.154Z,7.20
2023-04-22T11:31:10.335Z,4.90
2023-04-22T11:33:39.084Z,5.90
2023-04-22T11:36:15.154Z,4.40
2023-04-22T11:38:42.123Z,4.60
2023-04-22T11:41:08.890Z,6.80
2023-04-22T11:43:46.193Z,5.20
2023-04-22T11:46:13.565Z,4.50
2023-04-22T11:48:41.724Z,8.10
2023-04-22T11:51:10.931Z,4.60
2023-04-22T11:53:39.559Z,3.80
2023-04-22T11:56:06.434Z,3.50
2023-04-22T11:58:33.705Z,5.80
2023-04-22T12:01:00.551Z,5.10
2023-04-22T12:03:30.581Z,5.40
2023-04-22T12:06:03.971Z,5.30
2023-04-22T12:08:33.404Z,5.70
2023-04-22T12:11:03.346Z,3.80
2023-04-22T12:13:40.898Z,3.90
2023-04-22T12:16:14.062Z,4.20
2023-04-22T12:18:48.496Z,3.50
2023-04-22T12:21:18.009Z,3.80
2023-04-22T12:23:53.302Z,4.20
2023-04-22T12:26:23.126Z,5.60
2023-04-22T12:31:21.148Z,2.90
2023-04-22T12:33:48.046Z,3.60
2023-04-22T12:36:15.137Z,6.20
2023-04-22T12:38:41.878Z,3.90
2023-04-22T12:41:08.771Z,3.20
2023-04-22T12:43:36.182Z,3.40
2023-04-22T12:46:03.872Z,3.60
2023-04-22T12:48:31.057Z,3.40
2023-04-22T12:50:58.034Z,4.00
2023-04-22T12:53:26.619Z,5.90
2023-04-22T12:55:53.459Z,3.80
2023-04-22T12:58:21.644Z,4.50
2023-04-22T13:00:48.422Z,3.50
2023-04-22T13:03:15.487Z,6.60
2023-04-22T13:05:44.703Z,3.70
2023-04-22T13:08:11.368Z,3.50
2023-04-22T13:10:38.103Z,3.40
2023-04-22T13:13:17.561Z,3.00
2023-04-22T13:15:52.556Z,4.80
2023-04-22T13:18:19.660Z,4.90
2023-04-22T13:20:47.048Z,3.80
2023-04-22T13:23:14.238Z,2.90
2023-04-22T13:25:40.960Z,6.10
2023-04-22T13:28:07.856Z,4.10
2023-04-22T13:30:35.739Z,3.40
2023-04-22T13:33:03.033Z,2.60
2023-04-22T13:35:31.482Z,2.60
2023-04-22T13:37:58.399Z,2.70
2023-04-22T13:40:27.701Z,2.00
2023-04-22T13:42:54.830Z,2.60
2023-04-22T13:45:21.722Z,2.10
2023-04-22T13:47:48.677Z,2.30
2023-04-22T13:50:15.893Z,2.20
2023-04-22T13:52:44.537Z,3.60
2023-04-22T13:55:11.449Z,2.80
2023-04-22T13:57:38.435Z,4.30
2023-04-22T14:00:06.165Z,2.10
2023-04-22T14:02:42.116Z,1.50
2023-04-22T14:05:10.097Z,1.40
2023-04-22T14:07:39.359Z,2.00
2023-04-22T14:10:08.294Z,5.00
2023-04-22T14:12:36.731Z,1.70
2023-04-22T14:15:04.130Z,2.40
2023-04-22T14:17:32.516Z,2.00
2023-04-22T14:19:59.659Z,1.30
2023-04-22T14:22:26.483Z,1.30
2023-04-22T14:24:55.663Z,4.20
2023-04-22T14:27:22.544Z,1.00
2023-04-22T14:29:51.922Z,1.10
2023-04-22T14:32:19.516Z,1.90
2023-04-22T14:34:47.837Z,1.70
2023-04-22T14:37:14.828Z,0.60
2023-04-22T14:39:42.240Z,4.50
2023-04-22T14:42:10.424Z,0.90
2023-04-22T14:44:37.257Z,2.80
2023-04-22T14:47:07.390Z,2.80
2023-04-22T14:49:37.654Z,2.40
2023-04-22T14:52:07.076Z,1.00
2023-04-22T14:54:34.148Z,2.20
2023-04-22T14:57:02.358Z,2.10
2023-04-22T14:59:30.797Z,1.00
2023-04-22T15:02:00.239Z,1.80
2023-04-22T15:04:28.335Z,1.10
2023-04-22T15:06:56.950Z,3.40
2023-04-22T15:09:28.722Z,1.90
2023-04-22T15:11:59.768Z,1.10
2023-04-22T15:14:26.490Z,1.90
2023-04-22T15:16:55.440Z,1.60
2023-04-22T15:19:22.473Z,2.20
2023-04-22T15:21:49.371Z,1.60
2023-04-22T15:24:20.191Z,1.40
2023-04-22T15:26:48.171Z,2.80
2023-04-22T15:29:15.009Z,1.10
2023-04-22T15:31:41.741Z,2.70
2023-04-22T15:34:11.368Z,2.90
2023-04-22T15:36:38.261Z,1.10
2023-04-22T15:39:10.192Z,1.40
2023-04-22T15:41:37.574Z,1.70
2023-04-22T15:44:05.908Z,3.30
2023-04-22T15:46:34.399Z,2.00
2023-04-22T15:49:07.681Z,1.70
2023-04-22T15:51:34.561Z,2.50
2023-04-22T15:54:03.250Z,2.20
2023-04-22T15:56:32.423Z,8.10
2023-04-22T15:58:59.454Z,1.70
2023-04-22T16:01:27.553Z,3.20
2023-04-22T16:03:54.689Z,4.80
2023-04-22T16:06:25.394Z,1.90
2023-04-22T16:08:52.462Z,1.40
2023-04-22T16:11:19.334Z,1.60
2023-04-22T16:13:47.572Z,1.80
2023-04-22T16:16:15.053Z,1.50
2023-04-22T16:18:44.393Z,1.30
2023-04-22T16:21:11.366Z,4.60
2023-04-22T16:23:38.382Z,2.00
2023-04-22T16:26:06.807Z,1.70
2023-04-22T16:28:35.890Z,1.50
2023-04-22T16:31:03.925Z,2.10
2023-04-22T16:33:32.269Z,2.50
2023-04-22T16:35:59.226Z,2.60
2023-04-22T16:38:26.774Z,2.90
2023-04-22T16:40:53.599Z,3.70
2023-04-22T16:43:20.728Z,6.90
2023-04-22T16:45:49.221Z,1.90
2023-04-22T16:48:18.203Z,3.10
2023-04-22T16:50:44.960Z,1.90
2023-04-22T16:53:13.133Z,2.40
2023-04-22T16:55:40.936Z,2.10
2023-04-22T16:58:07.725Z,3.80
2023-04-22T17:00:34.667Z,1.80
2023-04-22T17:03:05.994Z,3.60
2023-04-22T17:05:34.076Z,2.50
2023-04-22T17:08:01.041Z,3.60
2023-04-22T17:10:29.505Z,2.70
2023-04-22T17:12:56.871Z,1.70
2023-04-22T17:15:24.154Z,1.70
2023-04-22T17:17:51.338Z,1.60
2023-04-22T17:20:19.456Z,3.10
2023-04-22T17:22:46.290Z,5.00
2023-04-22T17:25:13.980Z,1.70
2023-04-22T17:27:41.037Z,2.60
2023-04-22T17:30:08.345Z,3.40
2023-04-22T17:32:37.356Z,1.60
2023-04-22T17:35:04.388Z,1.60
2023-04-22T17:37:31.252Z,1.90
2023-04-22T17:39:58.038Z,2.70
2023-04-22T17:42:32.218Z,2.00
2023-04-22T17:45:06.696Z,4.50
2023-04-22T17:47:35.048Z,4.00
2023-04-22T17:50:01.965Z,1.70
2023-04-22T17:52:29.009Z,2.50
2023-04-22T17:54:59.918Z,2.40
2023-04-22T17:57:29.100Z,3.80
2023-04-22T17:59:57.278Z,2.20
2023-04-22T18:02:25.903Z,2.80
2023-04-22T18:04:54.530Z,3.20
2023-04-22T18:07:23.102Z,3.40
2023-04-22T18:09:51.402Z,3.80
2023-04-22T18:12:24.546Z,4.40
2023-04-22T18:14:52.459Z,4.70
2023-04-22T18:17:19.557Z,2.30
2023-04-22T18:19:50.421Z,2.20
2023-04-22T18:22:17.870Z,4.80
2023-04-22T18:24:47.321Z,3.80
2023-04-22T18:27:14.067Z,4.70
2023-04-22T18:29:41.309Z,3.00
2023-04-22T18:32:08.369Z,2.50
2023-04-22T18:34:36.583Z,2.90
2023-04-22T18:37:03.786Z,3.10
2023-04-22T18:39:30.595Z,3.70
2023-04-22T18:41:58.768Z,2.90
2023-04-22T18:44:26.587Z,3.30
2023-04-22T18:46:56.213Z,2.90
2023-04-22T18:49:23.024Z,2.50
2023-04-22T18:51:50.298Z,3.50
2023-04-22T18:54:18.758Z,2.30
2023-04-22T18:56:46.138Z,2.90
2023-04-22T18:59:13.620Z,2.70
2023-04-22T19:01:40.531Z,5.00
2023-04-22T19:04:07.538Z,3.60
2023-04-22T19:06:35.601Z,3.80
2023-04-22T19:09:05.036Z,3.00
2023-04-22T19:11:32.039Z,4.80
2023-04-22T19:14:02.395Z,4.70
2023-04-22T19:16:34.432Z,5.00
2023-04-22T19:19:01.156Z,3.60
2023-04-22T19:21:29.314Z,3.50
2023-04-22T19:23:56.147Z,6.40
2023-04-22T19:26:23.063Z,5.20
2023-04-22T19:28:50.083Z,5.20
2023-04-22T19:31:17.256Z,4.40
2023-04-22T19:33:44.091Z,4.90
2023-04-22T19:36:10.808Z,5.00
2023-04-22T19:38:37.700Z,5.90
2023-04-22T19:41:04.460Z,5.50
2023-04-22T19:43:32.336Z,5.70
2023-04-22T19:45:59.187Z,4.30
2023-04-22T19:48:26.554Z,4.10
2023-04-22T19:50:53.397Z,4.10
2023-04-22T19:53:20.257Z,5.00
2023-04-22T19:55:47.229Z,5.10
2023-04-22T19:58:15.028Z,5.90
2023-04-22T20:00:42.311Z,4.30
2023-04-22T20:03:09.740Z,6.70
2023-04-22T20:05:37.204Z,2.70
2023-04-22T20:08:04.388Z,4.50
2023-04-22T20:10:32.444Z,4.40
2023-04-22T20:12:59.426Z,5.10
2023-04-22T20:15:27.351Z,6.60
2023-04-22T20:17:55.429Z,4.70
2023-04-22T20:20:23.298Z,4.50
2023-04-22T20:22:50.942Z,5.00
2023-04-22T20:25:18.307Z,7.30
2023-04-22T20:27:45.456Z,4.60
2023-04-22T20:30:13.776Z,4.70
2023-04-22T20:32:42.100Z,6.10
2023-04-22T20:35:15.900Z,4.90
2023-04-22T20:37:45.543Z,7.30
2023-04-22T20:40:14.297Z,4.10
2023-04-22T20:42:41.868Z,7.50
2023-04-22T20:45:14.405Z,8.50
2023-04-22T20:47:42.064Z,8.20
2023-04-22T20:50:09.484Z,7.50
2023-04-22T20:52:36.604Z,8.40
2023-04-22T20:55:06.146Z,12.40
2023-04-22T20:57:32.894Z,7.60
2023-04-22T20:59:59.618Z,5.60
2023-04-22T21:02:26.541Z,6.30
2023-04-22T21:04:54.975Z,7.00
2023-04-22T21:07:25.559Z,5.00
2023-04-22T21:09:52.587Z,5.30
2023-04-22T21:12:19.627Z,5.40
2023-04-22T21:14:47.104Z,8.90
2023-04-22T21:17:22.359Z,7.20
2023-04-22T21:19:50.022Z,8.40
2023-04-22T21:22:19.532Z,7.30
2023-04-22T21:24:50.072Z,6.50
2023-04-22T21:27:17.780Z,7.90
2023-04-22T21:29:45.912Z,6.10
2023-04-22T21:32:13.986Z,8.40
2023-04-22T21:34:41.266Z,7.70
2023-04-22T21:37:08.366Z,7.60
2023-04-22T21:39:36.697Z,9.60
2023-04-22T21:42:07.070Z,6.90
2023-04-22T21:44:35.543Z,6.30
2023-04-22T21:47:02.476Z,5.70
2023-04-22T21:49:29.598Z,6.50
2023-04-22T21:51:57.073Z,4.60
2023-04-22T21:54:24.185Z,4.50
2023-04-22T21:56:51.703Z,5.40
2023-04-22T21:59:18.736Z,5.20
2023-04-22T22:01:45.616Z,4.90
2023-04-22T22:04:15.453Z,6.80
2023-04-22T22:06:44.292Z,7.20
2023-04-22T22:09:11.823Z,3.80
2023-04-22T22:11:39.293Z,4.30
2023-04-22T22:14:06.366Z,4.00
2023-04-22T22:16:34.159Z,5.20
2023-04-22T22:19:03.844Z,4.60
2023-04-22T22:21:32.271Z,5.80
2023-04-22T22:23:59.445Z,5.50
2023-04-22T22:26:26.947Z,5.50
2023-04-22T22:28:53.936Z,5.80
2023-04-22T22:31:22.230Z,4.10
2023-04-22T22:33:49.793Z,5.30
2023-04-22T22:36:18.409Z,6.10
2023-04-22T22:38:45.808Z,4.00
2023-04-22T22:41:13.139Z,4.60
2023-04-22T22:43:40.081Z,7.10
2023-04-22T22:46:06.779Z,4.80
2023-04-22T22:48:34.081Z,4.50
2023-04-22T22:51:02.360Z,5.50
2023-04-22T22:53:32.366Z,5.50
2023-04-22T22:55:59.265Z,6.70
2023-04-22T22:58:26.304Z,5.10
2023-04-22T23:00:53.251Z,6.60
2023-04-22T23:03:22.917Z,4.80
2023-04-22T23:05:50.256Z,7.60
2023-04-22T23:08:19.374Z,4.50
2023-04-22T23:10:47.874Z,5.70
2023-04-22T23:13:14.903Z,5.60
2023-04-22T23:15:41.981Z,4.40
2023-04-22T23:18:10.030Z,5.30
2023-04-22T23:20:38.841Z,3.80
2023-04-22T23:23:05.770Z,6.40
2023-04-22T23:25:34.003Z,5.40
2023-04-22T23:28:01.498Z,8.60
2023-04-22T23:30:28.790Z,10.10
2023-04-22T23:32:57.423Z,8.20
2023-04-22T23:35:26.818Z,9.80
2023-04-22T23:37:54.283Z,6.40
2023-04-22T23:40:21.155Z,7.70
2023-04-22T23:42:48.656Z,5.30
2023-04-22T23:45:15.529Z,9.10
2023-04-22T23:47:42.840Z,5.40
2023-04-22T23:50:10.442Z,5.90
2023-04-22T23:52:40.435Z,6.40
2023-04-22T23:55:31.240Z,10.10
2023-04-22T23:57:58.145Z,8.70
